createdAt,value
2017-11-27T00:00:15.441Z,1013.74
2017-11-27T00:01:25.227Z,1013.75
2017-11-27T00:02:34.713Z,1013.82
2017-11-27T00:03:44.773Z,1013.79
2017-11-27T00:04:54.788Z,1013.68
2017-11-27T00:06:04.855Z,1013.71
2017-11-27T00:07:14.354Z,1013.73
2017-11-27T00:08:24.089Z,1013.71
2017-11-27T00:09:34.181Z,1013.65
2017-11-27T00:10:43.950Z,1013.61
2017-11-27T00:11:53.508Z,1013.59
2017-11-27T00:13:03.020Z,1013.65
2017-11-27T00:14:12.756Z,1013.59
2017-11-27T00:15:22.804Z,1013.57
2017-11-27T00:16:32.562Z,1013.51
2017-11-27T00:17:42.314Z,1013.54
2017-11-27T00:18:52.090Z,1013.53
2017-11-27T00:20:02.126Z,1013.57
2017-11-27T00:21:12.140Z,1013.57
2017-11-27T00:22:21.881Z,1013.53
2017-11-27T00:23:31.646Z,1013.45
2017-11-27T00:24:41.393Z,1013.44
2017-11-27T00:25:51.132Z,1013.42
2017-11-27T00:27:00.336Z,1013.49
2017-11-27T00:28:10.178Z,1013.49
2017-11-27T00:29:19.916Z,1013.56
2017-11-27T00:30:29.732Z,1013.49
2017-11-27T00:31:39.220Z,1013.54
2017-11-27T00:32:49.272Z,1013.7
2017-11-27T00:33:59.020Z,1013.37
2017-11-27T00:35:08.812Z,1013.62
2017-11-27T00:36:18.638Z,1013.71
2017-11-27T00:37:28.118Z,1013.79
2017-11-27T00:38:42.371Z,1013.67
2017-11-27T00:39:52.111Z,1013.67
2017-11-27T00:41:01.578Z,1013.69
2017-11-27T00:42:11.659Z,1013.71
2017-11-27T00:43:21.400Z,1013.58
2017-11-27T00:44:31.425Z,1013.51
2017-11-27T00:45:40.905Z,1013.33
2017-11-27T00:46:50.912Z,1013.42
2017-11-27T00:48:00.940Z,1013.39
2017-11-27T00:49:10.426Z,1013.47
2017-11-27T00:50:20.163Z,1013.38
2017-11-27T00:51:29.901Z,1013.44
2017-11-27T00:52:39.633Z,1013.56
2017-11-27T00:53:49.637Z,1013.42
2017-11-27T00:54:59.386Z,1013.37
2017-11-27T00:56:09.397Z,1013.37
2017-11-27T00:57:19.469Z,1013.33
2017-11-27T00:58:29.252Z,1013.33
2017-11-27T00:59:38.723Z,1013.35
2017-11-27T01:00:48.195Z,1013.38
2017-11-27T01:01:57.670Z,1013.33
2017-11-27T01:03:07.704Z,1013.33
2017-11-27T01:04:17.441Z,1013.36
2017-11-27T01:05:27.447Z,1013.48
2017-11-27T01:06:37.464Z,1013.38
2017-11-27T01:07:47.205Z,1013.46
2017-11-27T01:08:56.956Z,1013.37
2017-11-27T01:10:06.687Z,1013.41
2017-11-27T01:11:16.725Z,1013.4
2017-11-27T01:12:26.463Z,1013.39
2017-11-27T01:13:36.287Z,1013.39
2017-11-27T01:14:46.049Z,1013.29
2017-11-27T01:15:55.811Z,1013.41
2017-11-27T01:17:05.545Z,1013.34
2017-11-27T01:18:15.553Z,1013.41
2017-11-27T01:19:25.304Z,1013.37
2017-11-27T01:20:35.319Z,1013.33
2017-11-27T01:21:45.066Z,1013.41
2017-11-27T01:22:55.074Z,1013.36
2017-11-27T01:24:05.079Z,1013.31
2017-11-27T01:25:14.830Z,1013.29
2017-11-27T01:26:24.580Z,1013.31
2017-11-27T01:27:34.641Z,1013.24
2017-11-27T01:28:44.107Z,1013.3
2017-11-27T01:29:54.116Z,1013.17
2017-11-27T01:31:04.128Z,1013.27
2017-11-27T01:32:13.872Z,1013.32
2017-11-27T01:33:23.349Z,1013.23
2017-11-27T01:34:33.099Z,1013.41
2017-11-27T01:35:43.111Z,1013.16
2017-11-27T01:36:53.117Z,1013.23
2017-11-27T01:38:02.856Z,1013.3
2017-11-27T01:39:12.589Z,1013.29
2017-11-27T01:40:22.336Z,1013.17
2017-11-27T01:41:32.324Z,1013.26
2017-11-27T01:42:42.329Z,1013.28
2017-11-27T01:43:52.340Z,1013.27
2017-11-27T01:45:02.359Z,1013.27
2017-11-27T01:46:12.373Z,1013.31
2017-11-27T01:47:22.384Z,1013.26
2017-11-27T01:48:32.129Z,1013.3
2017-11-27T01:49:42.134Z,1013.33
2017-11-27T01:50:52.140Z,1013.32
2017-11-27T01:52:02.146Z,1013.32
2017-11-27T01:53:11.617Z,1013.34
2017-11-27T01:54:21.081Z,1013.4
2017-11-27T01:55:30.275Z,1013.32
2017-11-27T01:56:40.023Z,1013.3
2017-11-27T01:57:50.060Z,1013.47
2017-11-27T01:59:00.320Z,1013.32
2017-11-27T02:00:10.324Z,1013.29
2017-11-27T02:01:20.063Z,1013.36
2017-11-27T02:02:30.068Z,1013.44
2017-11-27T02:03:40.075Z,1013.32
2017-11-27T02:04:49.796Z,1013.25
2017-11-27T02:05:59.556Z,1013.22
2017-11-27T02:07:09.562Z,1013.27
2017-11-27T02:08:19.033Z,1013.24
2017-11-27T02:09:28.503Z,1013.16
2017-11-27T02:10:38.511Z,1013.17
2017-11-27T02:11:48.247Z,1013.33
2017-11-27T02:12:58.274Z,1013.23
2017-11-27T02:14:08.072Z,1013.21
2017-11-27T02:15:17.826Z,1013.08
2017-11-27T02:16:27.851Z,1013.12
2017-11-27T02:17:37.597Z,1013.01
2017-11-27T02:18:47.356Z,1013.09
2017-11-27T02:19:57.375Z,1013.2
2017-11-27T02:21:07.122Z,1013.14
2017-11-27T02:22:17.151Z,1013.24
2017-11-27T02:23:27.185Z,1013.18
2017-11-27T02:24:36.974Z,1013.21
2017-11-27T02:25:47.144Z,1013.12
2017-11-27T02:26:57.171Z,1013.09
2017-11-27T02:28:07.196Z,1013.1
2017-11-27T02:29:16.963Z,1013.1
2017-11-27T02:30:26.738Z,1012.98
2017-11-27T02:31:36.778Z,1013.02
2017-11-27T02:32:46.536Z,1012.99
2017-11-27T02:33:56.588Z,1013
2017-11-27T02:35:06.637Z,1013.03
2017-11-27T02:36:16.680Z,1012.94
2017-11-27T02:37:26.704Z,1012.86
2017-11-27T02:38:36.194Z,1012.99
2017-11-27T02:39:45.940Z,1013.01
2017-11-27T02:40:55.689Z,1013.04
2017-11-27T02:42:05.457Z,1013.04
2017-11-27T02:43:15.231Z,1012.89
2017-11-27T02:44:24.184Z,1012.92
2017-11-27T02:45:33.958Z,1012.82
2017-11-27T02:46:43.721Z,1012.79
2017-11-27T02:47:53.216Z,1012.84
2017-11-27T02:49:03.257Z,1012.87
2017-11-27T02:50:12.754Z,1012.9
2017-11-27T02:51:22.534Z,1012.72
2017-11-27T02:52:32.298Z,1012.75
2017-11-27T02:53:41.783Z,1012.77
2017-11-27T02:54:51.831Z,1012.68
2017-11-27T02:56:01.586Z,1012.67
2017-11-27T02:57:11.619Z,1012.55
2017-11-27T02:58:21.650Z,1012.64
2017-11-27T02:59:31.405Z,1012.66
2017-11-27T03:00:41.425Z,1012.61
2017-11-27T03:01:51.169Z,1012.52
2017-11-27T03:03:00.658Z,1012.62
2017-11-27T03:04:10.415Z,1012.54
2017-11-27T03:05:20.441Z,1012.6
2017-11-27T03:06:29.651Z,1012.5
2017-11-27T03:07:38.858Z,1012.54
2017-11-27T03:08:48.853Z,1012.56
2017-11-27T03:09:58.903Z,1012.57
2017-11-27T03:11:08.927Z,1012.6
2017-11-27T03:12:18.743Z,1012.56
2017-11-27T03:13:28.754Z,1012.53
2017-11-27T03:14:38.788Z,1012.51
2017-11-27T03:15:48.543Z,1012.52
2017-11-27T03:16:58.577Z,1012.52
2017-11-27T03:18:08.389Z,1012.48
2017-11-27T03:19:18.413Z,1012.54
2017-11-27T03:20:28.441Z,1012.48
2017-11-27T03:21:38.186Z,1012.47
2017-11-27T03:22:48.212Z,1012.42
2017-11-27T03:23:57.967Z,1012.49
2017-11-27T03:25:07.709Z,1012.51
2017-11-27T03:26:17.992Z,1012.42
2017-11-27T03:27:27.202Z,1012.44
2017-11-27T03:28:36.422Z,1012.45
2017-11-27T03:29:46.176Z,1012.44
2017-11-27T03:30:56.194Z,1012.41
2017-11-27T03:32:06.257Z,1012.38
2017-11-27T03:33:15.732Z,1012.41
2017-11-27T03:34:25.533Z,1012.29
2017-11-27T03:35:35.279Z,1012.33
2017-11-27T03:36:45.036Z,1012.24
2017-11-27T03:37:55.069Z,1012.23
2017-11-27T03:39:04.821Z,1012.23
2017-11-27T03:40:14.313Z,1012.25
2017-11-27T03:41:23.808Z,1012.24
2017-11-27T03:42:33.299Z,1012.16
2017-11-27T03:43:43.052Z,1012.07
2017-11-27T03:44:52.525Z,1012.17
2017-11-27T03:46:02.007Z,1012.09
2017-11-27T03:47:12.028Z,1012.06
2017-11-27T03:48:21.520Z,1012.06
2017-11-27T03:49:31.546Z,1012.13
2017-11-27T03:50:41.292Z,1011.95
2017-11-27T03:51:51.032Z,1011.97
2017-11-27T03:53:01.065Z,1011.96
2017-11-27T03:54:10.539Z,1012
2017-11-27T03:55:20.300Z,1011.94
2017-11-27T03:56:30.323Z,1011.86
2017-11-27T03:57:40.355Z,1011.98
2017-11-27T03:58:49.872Z,1011.89
2017-11-27T03:59:59.624Z,1011.99
2017-11-27T04:01:09.378Z,1012.11
2017-11-27T04:02:18.875Z,1011.95
2017-11-27T04:03:28.359Z,1011.84
2017-11-27T04:04:38.110Z,1011.88
2017-11-27T04:05:47.857Z,1011.87
2017-11-27T04:06:59.898Z,1011.92
2017-11-27T04:08:09.932Z,1011.85
2017-11-27T04:09:19.970Z,1011.79
2017-11-27T04:10:29.741Z,1011.81
2017-11-27T04:11:39.761Z,1011.77
2017-11-27T04:12:49.785Z,1011.72
2017-11-27T04:13:58.989Z,1011.8
2017-11-27T04:15:09.011Z,1011.63
2017-11-27T04:16:19.043Z,1011.76
2017-11-27T04:17:29.076Z,1011.72
2017-11-27T04:18:39.114Z,1011.71
2017-11-27T04:19:48.863Z,1011.72
2017-11-27T04:20:58.075Z,1011.69
2017-11-27T04:22:08.100Z,1011.61
2017-11-27T04:23:18.124Z,1011.66
2017-11-27T04:24:27.873Z,1011.63
2017-11-27T04:25:37.626Z,1011.69
2017-11-27T04:26:47.658Z,1011.63
2017-11-27T04:27:57.410Z,1011.62
2017-11-27T04:29:06.635Z,1011.68
2017-11-27T04:30:16.684Z,1011.57
2017-11-27T04:31:26.457Z,1011.59
2017-11-27T04:32:36.501Z,1011.74
2017-11-27T04:33:46.260Z,1011.62
2017-11-27T04:34:56.014Z,1011.55
2017-11-27T04:36:05.747Z,1011.51
2017-11-27T04:37:15.521Z,1011.55
2017-11-27T04:38:25.552Z,1011.53
2017-11-27T04:39:35.319Z,1011.56
2017-11-27T04:40:45.075Z,1011.52
2017-11-27T04:41:55.159Z,1011.49
2017-11-27T04:43:04.937Z,1011.35
2017-11-27T04:44:14.426Z,1011.38
2017-11-27T04:45:24.444Z,1011.41
2017-11-27T04:46:34.459Z,1011.44
2017-11-27T04:47:44.205Z,1011.46
2017-11-27T04:48:54.241Z,1011.42
2017-11-27T04:50:03.486Z,1011.46
2017-11-27T04:51:13.174Z,1011.39
2017-11-27T04:52:22.928Z,1011.31
2017-11-27T04:53:32.962Z,1011.31
2017-11-27T04:54:42.991Z,1011.26
2017-11-27T04:55:52.748Z,1011.35
2017-11-27T04:57:02.869Z,1011.26
2017-11-27T04:58:12.617Z,1011.14
2017-11-27T04:59:22.378Z,1011.13
2017-11-27T05:00:32.413Z,1011.21
2017-11-27T05:01:42.177Z,1011.36
2017-11-27T05:02:51.385Z,1011.08
2017-11-27T05:04:01.418Z,1011.17
2017-11-27T05:05:11.184Z,1011.16
2017-11-27T05:06:20.960Z,1011.13
2017-11-27T05:07:30.755Z,1011.05
2017-11-27T05:08:40.499Z,1011.28
2017-11-27T05:09:50.532Z,1011.12
2017-11-27T05:11:00.292Z,1011.01
2017-11-27T05:12:10.366Z,1011.05
2017-11-27T05:13:19.586Z,1010.96
2017-11-27T05:14:29.344Z,1011.03
2017-11-27T05:15:39.378Z,1010.88
2017-11-27T05:16:49.143Z,1010.92
2017-11-27T05:17:59.412Z,1010.88
2017-11-27T05:19:09.453Z,1010.96
2017-11-27T05:20:19.484Z,1010.87
2017-11-27T05:21:29.508Z,1010.93
2017-11-27T05:22:38.992Z,1010.77
2017-11-27T05:23:48.742Z,1011
2017-11-27T05:24:58.504Z,1010.73
2017-11-27T05:26:08.532Z,1010.89
2017-11-27T05:27:18.320Z,1010.78
2017-11-27T05:28:28.078Z,1010.8
2017-11-27T05:29:37.827Z,1010.83
2017-11-27T05:30:47.583Z,1010.85
2017-11-27T05:31:57.326Z,1010.83
2017-11-27T05:33:06.808Z,1010.73
2017-11-27T05:34:17.093Z,1010.72
2017-11-27T05:35:26.853Z,1010.74
2017-11-27T05:36:36.613Z,1010.74
2017-11-27T05:37:46.362Z,1010.82
2017-11-27T05:38:56.383Z,1010.75
2017-11-27T05:40:06.439Z,1010.65
2017-11-27T05:41:16.194Z,1010.66
2017-11-27T05:42:25.673Z,1010.67
2017-11-27T05:43:35.721Z,1010.6
2017-11-27T05:44:45.533Z,1010.56
2017-11-27T05:45:55.306Z,1010.57
2017-11-27T05:47:05.327Z,1010.49
2017-11-27T05:48:15.080Z,1010.51
2017-11-27T05:49:25.120Z,1010.51
2017-11-27T05:50:35.193Z,1010.46
2017-11-27T05:51:44.958Z,1010.3
2017-11-27T05:52:54.443Z,1010.34
2017-11-27T05:54:04.462Z,1010.42
2017-11-27T05:55:14.500Z,1010.48
2017-11-27T05:56:24.255Z,1010.13
2017-11-27T05:57:33.871Z,1010.38
2017-11-27T05:58:43.350Z,1010.22
2017-11-27T05:59:53.378Z,1010.16
2017-11-27T06:01:03.413Z,1010.3
2017-11-27T06:02:13.481Z,1010.06
2017-11-27T06:03:23.606Z,1010.19
2017-11-27T06:04:33.629Z,1010
2017-11-27T06:05:43.397Z,1010.11
2017-11-27T06:06:53.165Z,1010.3
2017-11-27T06:08:02.653Z,1009.88
2017-11-27T06:09:11.874Z,1010.09
2017-11-27T06:10:21.900Z,1009.9
2017-11-27T06:11:31.955Z,1010.07
2017-11-27T06:12:41.707Z,1010.09
2017-11-27T06:13:51.769Z,1009.98
2017-11-27T06:15:01.516Z,1009.96
2017-11-27T06:16:11.564Z,1009.85
2017-11-27T06:17:21.038Z,1009.8
2017-11-27T06:18:30.778Z,1009.84
2017-11-27T06:19:40.270Z,1009.73
2017-11-27T06:20:50.281Z,1009.75
2017-11-27T06:22:00.039Z,1009.81
2017-11-27T06:23:09.261Z,1009.77
2017-11-27T06:24:18.733Z,1009.76
2017-11-27T06:25:28.484Z,1009.81
2017-11-27T06:26:38.530Z,1009.7
2017-11-27T06:27:48.073Z,1009.73
2017-11-27T06:28:58.136Z,1009.82
2017-11-27T06:30:07.464Z,1009.47
2017-11-27T06:31:16.936Z,1009.74
2017-11-27T06:32:26.996Z,1009.65
2017-11-27T06:33:36.480Z,1009.4
2017-11-27T06:34:46.573Z,1009.75
2017-11-27T06:35:56.333Z,1009.5
2017-11-27T06:37:05.821Z,1009.62
2017-11-27T06:38:15.577Z,1009.57
2017-11-27T06:39:25.376Z,1009.57
2017-11-27T06:40:35.129Z,1009.53
2017-11-27T06:41:44.873Z,1009.58
2017-11-27T06:42:54.898Z,1009.58
2017-11-27T06:44:04.927Z,1009.42
2017-11-27T06:45:14.689Z,1009.69
2017-11-27T06:46:24.717Z,1009.32
2017-11-27T06:47:34.770Z,1009.29
2017-11-27T06:48:44.273Z,1009.32
2017-11-27T06:49:54.527Z,1009.34
2017-11-27T06:51:04.556Z,1009.38
2017-11-27T06:52:14.578Z,1009.35
2017-11-27T06:53:24.605Z,1009.24
2017-11-27T06:54:34.093Z,1009.25
2017-11-27T06:55:43.419Z,1009.31
2017-11-27T06:56:52.968Z,1009.17
2017-11-27T06:58:03.025Z,1009.23
2017-11-27T06:59:12.783Z,1009.16
2017-11-27T07:00:22.550Z,1009.2
2017-11-27T07:01:32.594Z,1008.99
2017-11-27T07:02:42.366Z,1008.86
2017-11-27T07:03:52.161Z,1009.06
2017-11-27T07:05:01.966Z,1009.06
2017-11-27T07:06:12.058Z,1008.92
2017-11-27T07:07:22.099Z,1008.86
2017-11-27T07:08:31.586Z,1008.89
2017-11-27T07:09:41.079Z,1008.93
2017-11-27T07:10:50.579Z,1008.93
2017-11-27T07:12:00.352Z,1008.94
2017-11-27T07:13:10.377Z,1008.88
2017-11-27T07:14:19.868Z,1008.83
2017-11-27T07:15:29.627Z,1008.89
2017-11-27T07:16:39.417Z,1008.81
2017-11-27T07:17:48.902Z,1008.64
2017-11-27T07:18:58.155Z,1008.82
2017-11-27T07:20:08.252Z,1008.69
2017-11-27T07:21:18.043Z,1008.78
2017-11-27T07:22:27.818Z,1008.79
2017-11-27T07:23:37.590Z,1008.69
2017-11-27T07:24:47.130Z,1008.71
2017-11-27T07:25:57.218Z,1008.57
2017-11-27T07:27:06.704Z,1008.74
2017-11-27T07:28:15.925Z,1008.67
2017-11-27T07:29:25.996Z,1008.64
2017-11-27T07:30:35.780Z,1008.75
2017-11-27T07:31:45.566Z,1008.63
2017-11-27T07:32:55.594Z,1008.53
2017-11-27T07:34:05.378Z,1008.61
2017-11-27T07:35:15.423Z,1008.48
2017-11-27T07:36:25.468Z,1008.55
2017-11-27T07:37:35.006Z,1008.61
2017-11-27T07:38:44.802Z,1008.55
2017-11-27T07:39:54.840Z,1008.34
2017-11-27T07:41:04.864Z,1008.41
2017-11-27T07:42:14.935Z,1008.46
2017-11-27T07:43:24.992Z,1008.35
2017-11-27T07:44:34.755Z,1008.35
2017-11-27T07:45:44.867Z,1008.42
2017-11-27T07:46:54.926Z,1008.42
2017-11-27T07:48:04.151Z,1008.42
2017-11-27T07:49:14.168Z,1008.29
2017-11-27T07:50:24.220Z,1008.11
2017-11-27T07:51:33.711Z,1008.22
2017-11-27T07:52:43.508Z,1008.3
2017-11-27T07:53:53.290Z,1008.24
2017-11-27T07:55:03.093Z,1008.21
2017-11-27T07:56:12.612Z,1008.17
2017-11-27T07:57:22.407Z,1008.24
2017-11-27T07:58:32.178Z,1008.07
2017-11-27T07:59:41.980Z,1008.05
2017-11-27T08:00:52.012Z,1007.99
2017-11-27T08:02:01.793Z,1007.92
2017-11-27T08:03:11.559Z,1007.95
2017-11-27T08:04:21.712Z,1007.95
2017-11-27T08:05:31.878Z,1007.88
2017-11-27T08:06:41.635Z,1008.1
2017-11-27T08:07:51.695Z,1007.93
2017-11-27T08:09:01.520Z,1007.92
2017-11-27T08:10:11.134Z,1007.79
2017-11-27T08:11:20.928Z,1007.89
2017-11-27T08:12:30.710Z,1007.76
2017-11-27T08:13:40.474Z,1007.6
2017-11-27T08:14:50.218Z,1007.79
2017-11-27T08:16:00.249Z,1007.82
2017-11-27T08:17:10.011Z,1007.79
2017-11-27T08:18:19.501Z,1007.68
2017-11-27T08:19:29.563Z,1007.62
2017-11-27T08:20:39.592Z,1007.77
2017-11-27T08:21:49.630Z,1007.55
2017-11-27T08:22:59.655Z,1007.67
2017-11-27T08:24:09.724Z,1007.71
2017-11-27T08:25:19.745Z,1007.48
2017-11-27T08:26:29.566Z,1007.62
2017-11-27T08:27:39.613Z,1007.61
2017-11-27T08:28:49.224Z,1007.51
2017-11-27T08:29:59.303Z,1007.46
2017-11-27T08:31:09.118Z,1007.64
2017-11-27T08:32:18.408Z,1007.51
2017-11-27T08:33:28.575Z,1007.44
2017-11-27T08:34:38.417Z,1007.49
2017-11-27T08:35:48.289Z,1007.39
2017-11-27T08:36:58.105Z,1007.52
2017-11-27T08:38:07.733Z,1007.34
2017-11-27T08:39:17.265Z,1007.35
2017-11-27T08:40:26.832Z,1007.33
2017-11-27T08:41:36.629Z,1007.43
2017-11-27T08:42:46.422Z,1007.28
2017-11-27T08:43:55.984Z,1007.4
2017-11-27T08:45:05.533Z,1007.35
2017-11-27T08:46:14.931Z,1007.43
2017-11-27T08:47:24.495Z,1007.3
2017-11-27T08:48:34.113Z,1007.3
2017-11-27T08:49:43.670Z,1007.1
2017-11-27T08:50:53.194Z,1007.39
2017-11-27T08:52:02.993Z,1007.24
2017-11-27T08:53:12.767Z,1007.32
2017-11-27T08:54:22.895Z,1007.26
2017-11-27T08:55:32.406Z,1007.3
2017-11-27T08:56:42.519Z,1007.29
2017-11-27T08:57:52.159Z,1007.21
2017-11-27T08:59:01.808Z,1007.24
2017-11-27T09:00:11.304Z,1007.22
2017-11-27T09:01:21.135Z,1007.14
2017-11-27T09:02:30.943Z,1007.12
2017-11-27T09:03:40.761Z,1006.94
2017-11-27T09:04:50.890Z,1006.99
2017-11-27T09:06:00.972Z,1006.91
2017-11-27T09:07:10.518Z,1007
2017-11-27T09:08:20.299Z,1007.02
2017-11-27T09:09:30.369Z,1006.89
2017-11-27T09:10:40.207Z,1006.88
2017-11-27T09:11:50.047Z,1006.84
2017-11-27T09:12:59.644Z,1006.82
2017-11-27T09:14:09.511Z,1006.74
2017-11-27T09:15:19.341Z,1006.86
2017-11-27T09:16:28.884Z,1006.85
2017-11-27T09:17:38.398Z,1006.79
2017-11-27T09:18:48.462Z,1006.83
2017-11-27T09:19:57.981Z,1006.79
2017-11-27T09:21:07.775Z,1006.81
2017-11-27T09:22:17.607Z,1006.65
2017-11-27T09:23:27.411Z,1006.7
2017-11-27T09:24:37.273Z,1006.69
2017-11-27T09:25:47.099Z,1006.68
2017-11-27T09:26:56.946Z,1006.58
2017-11-27T09:28:06.777Z,1006.51
2017-11-27T09:29:16.314Z,1006.5
2017-11-27T09:30:25.816Z,1006.45
2017-11-27T09:31:35.324Z,1006.57
2017-11-27T09:32:45.418Z,1006.48
2017-11-27T09:33:54.960Z,1006.52
2017-11-27T09:35:04.495Z,1006.41
2017-11-27T09:36:14.035Z,1006.43
2017-11-27T09:37:24.153Z,1006.34
2017-11-27T09:38:33.703Z,1006.27
2017-11-27T09:39:43.569Z,1006.41
2017-11-27T09:40:53.096Z,1006.37
2017-11-27T09:42:02.945Z,1006.4
2017-11-27T09:43:12.754Z,1006.35
2017-11-27T09:44:22.834Z,1006.28
2017-11-27T09:45:32.130Z,1006.35
2017-11-27T09:46:42.220Z,1006.29
2017-11-27T09:47:51.745Z,1006.26
2017-11-27T09:49:01.559Z,1006.33
2017-11-27T09:50:11.171Z,1006.34
2017-11-27T09:51:21.340Z,1006.31
2017-11-27T09:52:30.666Z,1006.25
2017-11-27T09:53:39.925Z,1006.19
2017-11-27T09:54:49.415Z,1006.5
2017-11-27T09:55:58.660Z,1006.28
2017-11-27T09:57:08.710Z,1006.14
2017-11-27T09:58:18.852Z,1006.21
2017-11-27T09:59:28.622Z,1006.24
2017-11-27T10:00:38.392Z,1006.21
2017-11-27T10:01:48.152Z,1006.22
2017-11-27T10:02:57.877Z,1006.16
2017-11-27T10:04:07.918Z,1006.23
2017-11-27T10:05:17.665Z,1006.07
2017-11-27T10:06:27.145Z,1006.1
2017-11-27T10:07:36.889Z,1006.19
2017-11-27T10:08:45.833Z,1006.07
2017-11-27T10:09:55.086Z,1006.11
2017-11-27T10:11:04.856Z,1006.1
2017-11-27T10:12:14.622Z,1005.89
2017-11-27T10:13:24.396Z,1005.92
2017-11-27T10:14:34.434Z,1005.97
2017-11-27T10:15:43.942Z,1005.93
2017-11-27T10:16:53.707Z,1005.78
2017-11-27T10:18:03.762Z,1005.96
2017-11-27T10:19:13.528Z,1005.87
2017-11-27T10:20:23.583Z,1005.89
2017-11-27T10:21:33.069Z,1005.83
2017-11-27T10:22:43.137Z,1005.99
2017-11-27T10:23:53.168Z,1006
2017-11-27T10:25:02.929Z,1005.96
2017-11-27T10:26:12.962Z,1005.87
2017-11-27T10:27:23.001Z,1005.77
2017-11-27T10:28:32.775Z,1005.8
2017-11-27T10:29:42.548Z,1005.69
2017-11-27T10:30:52.311Z,1005.71
2017-11-27T10:32:02.336Z,1005.64
2017-11-27T10:33:12.102Z,1005.43
2017-11-27T10:34:21.620Z,1005.31
2017-11-27T10:35:31.155Z,1005.27
2017-11-27T10:36:40.767Z,1005.03
2017-11-27T10:37:50.382Z,1005.18
2017-11-27T10:38:59.424Z,1005.4
2017-11-27T10:40:09.238Z,1005.34
2017-11-27T10:41:18.513Z,1005.16
2017-11-27T10:42:27.742Z,1005
2017-11-27T10:43:37.592Z,1005.15
2017-11-27T10:44:47.262Z,1005.22
2017-11-27T10:45:57.073Z,1005.12
2017-11-27T10:47:06.607Z,1005.02
2017-11-27T10:48:15.911Z,1004.95
2017-11-27T10:49:25.984Z,1004.97
2017-11-27T10:50:35.821Z,1004.82
2017-11-27T10:51:45.343Z,1004.85
2017-11-27T10:52:55.140Z,1004.91
2017-11-27T10:54:04.666Z,1004.64
2017-11-27T10:55:14.480Z,1004.72
2017-11-27T10:56:24.565Z,1004.56
2017-11-27T10:57:34.375Z,1004.28
2017-11-27T10:58:43.899Z,1004.45
2017-11-27T10:59:53.468Z,1004.3
2017-11-27T11:01:02.728Z,1004.22
2017-11-27T11:02:11.780Z,1004.46
2017-11-27T11:03:22.049Z,1004.18
2017-11-27T11:04:31.026Z,1004.17
2017-11-27T11:05:41.166Z,1004.24
2017-11-27T11:06:51.213Z,1003.96
2017-11-27T11:08:01.263Z,1004.22
2017-11-27T11:09:11.300Z,1004.06
2017-11-27T11:10:21.072Z,1004.11
2017-11-27T11:11:30.835Z,1004.09
2017-11-27T11:12:40.617Z,1004.06
2017-11-27T11:13:50.002Z,1004.24
2017-11-27T11:15:00.089Z,1004.25
2017-11-27T11:16:09.863Z,1003.89
2017-11-27T11:17:19.346Z,1003.86
2017-11-27T11:18:29.384Z,1004.12
2017-11-27T11:19:38.874Z,1003.67
2017-11-27T11:20:49.112Z,1004.06
2017-11-27T11:21:58.941Z,1003.89
2017-11-27T11:23:08.776Z,1003.5
2017-11-27T11:24:18.600Z,1003.92
2017-11-27T11:25:27.870Z,1003.71
2017-11-27T11:26:37.712Z,1003.66
2017-11-27T11:27:47.228Z,1003.77
2017-11-27T11:28:56.743Z,1003.8
2017-11-27T11:30:06.027Z,1003.41
2017-11-27T11:31:15.813Z,1003.7
2017-11-27T11:32:25.421Z,1003.63
2017-11-27T11:33:35.460Z,1003.76
2017-11-27T11:34:45.253Z,1003.69
2017-11-27T11:35:55.337Z,1003.5
2017-11-27T11:37:04.873Z,1003.35
2017-11-27T11:38:14.428Z,1003.24
2017-11-27T11:39:24.226Z,1003.4
2017-11-27T11:40:33.506Z,1003.45
2017-11-27T11:41:43.295Z,1003.43
2017-11-27T11:42:53.099Z,1003.35
2017-11-27T11:44:02.940Z,1003.28
2017-11-27T11:45:13.018Z,1003.43
2017-11-27T11:46:22.878Z,1003.63
2017-11-27T11:47:32.763Z,1003.37
2017-11-27T11:48:42.045Z,1003.32
2017-11-27T11:49:51.875Z,1003.29
2017-11-27T11:51:01.479Z,1003.25
2017-11-27T11:52:11.092Z,1003.26
2017-11-27T11:53:52.738Z,1003.38
2017-11-27T11:55:02.253Z,1003.08
2017-11-27T11:56:11.882Z,1003.2
2017-11-27T11:57:21.805Z,1003.22
2017-11-27T11:58:30.771Z,1003.18
2017-11-27T11:59:40.710Z,1003.26
2017-11-27T12:00:50.860Z,1003.17
2017-11-27T12:02:00.968Z,1003.08
2017-11-27T12:03:10.857Z,1003.09
2017-11-27T12:04:20.775Z,1003.02
2017-11-27T12:05:30.783Z,1002.92
2017-11-27T12:06:40.952Z,1002.92
2017-11-27T12:07:51.301Z,1002.79
2017-11-27T12:09:01.768Z,1002.78
2017-11-27T12:10:12.179Z,1002.7
2017-11-27T12:11:22.412Z,1002.76
2017-11-27T12:12:32.594Z,1002.87
2017-11-27T12:13:42.791Z,1002.82
2017-11-27T12:14:53.164Z,1002.64
2017-11-27T12:16:03.406Z,1002.71
2017-11-27T12:17:14.563Z,1002.56
2017-11-27T12:18:24.792Z,1002.8
2017-11-27T12:19:34.276Z,1002.58
2017-11-27T12:20:44.373Z,1002.65
2017-11-27T12:21:53.796Z,1002.62
2017-11-27T12:23:04.396Z,1002.53
2017-11-27T12:24:14.279Z,1002.57
2017-11-27T12:25:24.469Z,1002.28
2017-11-27T12:26:35.062Z,1002.75
2017-11-27T12:27:44.914Z,1002.57
2017-11-27T12:28:55.297Z,1002.42
2017-11-27T12:30:05.449Z,1002.47
2017-11-27T12:31:15.024Z,1002.55
2017-11-27T12:32:25.645Z,1002.46
2017-11-27T12:33:36.198Z,1002.48
2017-11-27T12:34:46.799Z,1002.41
2017-11-27T12:35:56.301Z,1002.29
2017-11-27T12:37:06.626Z,1002.56
2017-11-27T12:38:17.067Z,1002.43
2017-11-27T12:39:28.249Z,1002.41
2017-11-27T12:40:38.432Z,1002.55
2017-11-27T12:41:48.963Z,1002.6
2017-11-27T12:42:59.425Z,1002.53
2017-11-27T12:44:09.010Z,1002.52
2017-11-27T12:45:19.666Z,1002.54
2017-11-27T12:46:30.003Z,1002.61
2017-11-27T12:47:42.398Z,1002.52
2017-11-27T12:48:53.285Z,1002.4
2017-11-27T12:50:03.166Z,1002.45
2017-11-27T12:51:13.316Z,1002.38
2017-11-27T12:52:23.533Z,1002.31
2017-11-27T12:53:34.187Z,1002.56
2017-11-27T12:54:44.404Z,1002.27
2017-11-27T12:55:54.387Z,1002.37
2017-11-27T12:57:04.367Z,1002.39
2017-11-27T12:58:15.072Z,1002.33
2017-11-27T12:59:25.207Z,1002.31
2017-11-27T13:00:35.936Z,1002.27
2017-11-27T13:01:45.719Z,1002.36
2017-11-27T13:02:55.742Z,1002.24
2017-11-27T13:04:05.562Z,1002.36
2017-11-27T13:05:15.888Z,1002.17
2017-11-27T13:06:26.063Z,1002.28
2017-11-27T13:07:35.869Z,1002.3
2017-11-27T13:08:46.435Z,1002.34
2017-11-27T13:09:57.082Z,1002.18
2017-11-27T13:11:07.463Z,1002.12
2017-11-27T13:12:18.343Z,1002.09
2017-11-27T13:13:28.676Z,1002.12
2017-11-27T13:14:38.633Z,1002.02
2017-11-27T13:15:48.794Z,1001.93
2017-11-27T13:16:59.430Z,1001.72
2017-11-27T13:18:09.254Z,1002.03
2017-11-27T13:19:21.915Z,1001.91
2017-11-27T13:20:32.203Z,1001.95
2017-11-27T13:21:42.100Z,1001.86
2017-11-27T13:22:53.678Z,1001.88
2017-11-27T13:24:04.238Z,1001.76
2017-11-27T13:25:14.233Z,1001.85
2017-11-27T13:26:24.768Z,1001.7
2017-11-27T13:27:34.873Z,1001.82
2017-11-27T13:28:45.120Z,1001.51
2017-11-27T13:29:57.686Z,1001.7
2017-11-27T13:31:08.575Z,1001.55
2017-11-27T13:32:18.787Z,1001.46
2017-11-27T13:33:29.037Z,1001.68
2017-11-27T13:34:39.081Z,1001.51
2017-11-27T13:35:50.541Z,1001.76
2017-11-27T13:37:01.280Z,1001.56
2017-11-27T13:38:10.989Z,1001.55
2017-11-27T13:39:22.240Z,1001.7
2017-11-27T13:40:32.362Z,1001.46
2017-11-27T13:41:42.134Z,1001.48
2017-11-27T13:42:52.973Z,1001.53
2017-11-27T13:44:03.293Z,1001.56
2017-11-27T13:45:13.762Z,1001.43
2017-11-27T13:46:24.022Z,1001.39
2017-11-27T13:47:34.231Z,1001.38
2017-11-27T13:48:44.406Z,1001.37
2017-11-27T13:49:54.014Z,1001.35
2017-11-27T13:51:05.008Z,1001.56
2017-11-27T13:52:15.593Z,1001.69
2017-11-27T13:53:25.456Z,1001.31
2017-11-27T13:54:34.814Z,1001.36
2017-11-27T13:55:45.340Z,1001.22
2017-11-27T13:56:56.122Z,1001.18
2017-11-27T13:58:06.426Z,1001.37
2017-11-27T13:59:16.801Z,1001.57
2017-11-27T14:00:27.952Z,1001.5
2017-11-27T14:01:37.985Z,1001.21
2017-11-27T14:02:48.075Z,1001.21
2017-11-27T14:03:57.662Z,1001.11
2017-11-27T14:05:07.447Z,1001.3
2017-11-27T14:06:18.009Z,1001.38
2017-11-27T14:07:29.042Z,1001.19
2017-11-27T14:08:38.938Z,1001.35